createdAt,value
2023-07-25T00:00:04.700Z,0
2023-07-25T00:16:00.355Z,0
2023-07-25T00:31:00.485Z,0
2023-07-25T00:46:00.606Z,0
2023-07-25T01:00:00.944Z,0
2023-07-25T01:16:01.885Z,0
2023-07-25T01:31:02.018Z,0
2023-07-25T01:46:02.168Z,0
2023-07-25T02:00:02.120Z,0
2023-07-25T02:16:02.714Z,0
2023-07-25T02:31:03.184Z,0
2023-07-25T02:46:03.569Z,0
2023-07-25T03:00:03.563Z,0
2023-07-25T03:16:04.427Z,0
2023-07-25T03:31:04.319Z,0
2023-07-25T03:46:04.421Z,2
2023-07-25T03:59:59.897Z,20
2023-07-25T04:16:00.506Z,19
2023-07-25T04:31:00.499Z,4
2023-07-25T04:46:00.704Z,1
2023-07-25T05:00:01.113Z,0
2023-07-25T05:16:04.153Z,0
2023-07-25T05:31:01.890Z,0
2023-07-25T05:46:02.266Z,0
2023-07-25T06:00:02.687Z,0
2023-07-25T06:16:03.036Z,0
2023-07-25T06:31:03.086Z,0
2023-07-25T06:46:03.430Z,2
2023-07-25T07:00:03.570Z,11
2023-07-25T07:16:08.452Z,44
2023-07-25T07:31:04.330Z,140
2023-07-25T07:46:04.463Z,220
2023-07-25T07:59:59.517Z,330
2023-07-25T08:15:59.990Z,270
2023-07-25T08:31:00.233Z,335
2023-07-25T08:46:00.760Z,182
2023-07-25T09:00:02.289Z,92
2023-07-25T09:16:06.763Z,120
2023-07-25T09:31:02.393Z,272
2023-07-25T09:46:02.784Z,456
2023-07-25T10:00:03.248Z,435
2023-07-25T10:16:03.570Z,246
2023-07-25T10:31:07.414Z,154
2023-07-25T10:45:59.853Z,37
2023-07-25T11:00:00.321Z,73
2023-07-25T11:16:00.644Z,102
2023-07-25T11:31:00.519Z,295
2023-07-25T11:46:00.653Z,566
2023-07-25T12:00:01.607Z,645
2023-07-25T12:16:01.473Z,970
2023-07-25T12:31:01.619Z,930
2023-07-25T12:46:02.070Z,912
2023-07-25T13:00:04.090Z,775
2023-07-25T13:16:08.755Z,850
2023-07-25T13:31:03.175Z,449
2023-07-25T13:46:04.901Z,815
2023-07-25T14:00:04.261Z,360
2023-07-25T14:16:04.594Z,391
2023-07-25T14:30:59.796Z,416
2023-07-25T14:45:59.884Z,265
2023-07-25T14:59:59.829Z,250
2023-07-25T15:16:00.284Z,373
2023-07-25T15:31:00.471Z,110
2023-07-25T15:46:00.781Z,69
2023-07-25T16:00:01.233Z,38
2023-07-25T16:16:01.650Z,27
2023-07-25T16:31:23.161Z,18
2023-07-25T16:45:59.668Z,36
2023-07-25T17:00:02.602Z,12
2023-07-25T17:17:22.600Z,14
2023-07-25T17:31:03.399Z,6
2023-07-25T17:46:03.745Z,6
2023-07-25T18:00:04.120Z,7
2023-07-25T18:15:59.809Z,1
2023-07-25T18:30:59.930Z,0
2023-07-25T18:46:00.947Z,0
2023-07-25T19:00:00.781Z,0
2023-07-25T19:16:05.014Z,0
2023-07-25T19:31:01.965Z,0
2023-07-25T19:46:02.431Z,0
2023-07-25T20:00:02.698Z,0
2023-07-25T20:16:03.177Z,0
2023-07-25T20:31:03.999Z,0
2023-07-25T20:46:04.099Z,0
2023-07-25T21:00:04.147Z,0
2023-07-25T21:16:02.392Z,0
2023-07-25T21:31:00.264Z,0
2023-07-25T21:46:00.797Z,0
2023-07-25T22:00:03.678Z,0
2023-07-25T22:16:01.751Z,0
2023-07-25T22:31:01.874Z,0
2023-07-25T22:46:02.252Z,0
2023-07-25T23:00:02.422Z,0
2023-07-25T23:16:03.504Z,0
2023-07-25T23:31:03.861Z,0
2023-07-25T23:46:04.507Z,0
2023-07-25T23:59:59.623Z,0
